KPRG

Edgar County Airport

Paris, Illinois, USA
METAR KPRG 230855Z AUTO 28005KT 10SM CLR 05/03 A3017 RMK AO2 T00480030
Observed Flight Rules
Oct-23 @ 08:55 UTC (45 minutes ago) Visual Flight Rules
Wind Visibility Clouds
280° at 5 knots 10 miles
  • Clear skies
Temperatures Readings
Current 5°C / 41°F
Dewpoint 3°C / 37°F
Humidity 87%
Altimeter 30.17" Hg
Pressure 1022 hPa
Elevation 199
METAR KPRG 230855Z AUTO 28005KT 10SM CLR 05/03 A3017 RMK AO2 T00480030
Observed Flight Rules
Oct-23 @ 08:55 UTC
(45 minutes ago)
VFR
Wind Visibility
280° at 5 knots 10 miles
Clouds
  • Clear skies
Temperature Dewpoint
5°C / 41°F 3°C / 37°F
Humidity Altimeter Pressure
87% 30.17" Hg 1022 hPa